CSCL Fuzhou — ELYA7 — position and weather

sailwx.info

Track history (hours):
 
Tides and Currents Weather Stations Pressure Air Temp Water Temp Dewpoint Dewpoint Depression Visibility Wind Speed Wind Dir Waves Ship Positions

CSCL Fuzhou

Last reported at 2014-Jul-17 21:33 UTC. Time now 2014-Jul-23 15:29 UTC.
Position N 01°12' E 103°53'.

Length 207.4 m; beam 29.8 m; draft 11.4 m.

Type: Ship (hazmat cat A). MMSI: 636016483.

Date/timePositionNaut miles runAvg speedWind from/ knotsBaromVisibWave heightAir tempDewpointWater temp
2014-Jul-17 21:33N 01°12' E 103°53'9 0.7
2014-Jul-17 08:26N 01°17' E 103°46'0 0.0
2014-Jul-17 07:26N 01°17' E 103°46'0 0.0
2014-Jul-17 06:32N 01°17' E 103°46'0 0.0
2014-Jul-17 05:32N 01°17' E 103°46'0 0.0
2014-Jul-17 04:26N 01°17' E 103°46'0 0.0
2014-Jul-17 03:32N 01°17' E 103°46'0 0.0
2014-Jul-17 02:32N 01°17' E 103°46'0 0.0
2014-Jul-17 01:32N 01°17' E 103°46'0 0.0
2014-Jul-17 00:14N 01°17' E 103°46'0 0.0
2014-Jul-16 22:14N 01°17' E 103°46'0 0.0
2014-Jul-16 21:26N 01°17' E 103°46'0 0.0
2014-Jul-16 20:32N 01°17' E 103°46'0 0.0
2014-Jul-16 19:32N 01°17' E 103°46'0 0.0
2014-Jul-16 18:32N 01°17' E 103°46'0 0.0
2014-Jul-16 17:14N 01°17' E 103°46'0 0.0
2014-Jul-16 16:08N 01°17' E 103°46'0 0.0
2014-Jul-16 15:20N 01°17' E 103°46'0 0.0
2014-Jul-16 14:32N 01°17' E 103°46'0 0.0
2014-Jul-16 13:32N 01°17' E 103°46'0 0.0
2014-Jul-16 10:26N 01°17' E 103°46'0 0.0
2014-Jul-16 07:32N 01°17' E 103°46'1 1.2
2014-Jul-16 06:33N 01°17' E 103°44'2 2.3
2014-Jul-16 05:33N 01°16' E 103°46'5 5.4
2014-Jul-16 04:33N 01°12' E 103°50'7 6.7
2014-Jul-16 03:33N 01°15' E 103°57'  
2014-Jul-09 13:10N 01°13' E 103°58'911.0
2014-Jul-09 12:19N 01°12' E 103°48'5 7.3
2014-Jul-09 11:33N 01°17' E 103°46'0 0.2
2014-Jul-09 10:27N 01°17' E 103°46'0 0.0
2014-Jul-09 09:21N 01°17' E 103°46'0 0.0
2014-Jul-09 08:12N 01°17' E 103°46'0 0.0
2014-Jul-09 07:18N 01°17' E 103°46'0 0.0
2014-Jul-09 06:33N 01°17' E 103°46'0 0.0
2014-Jul-09 05:30N 01°17' E 103°46'0 0.0
2014-Jul-09 04:24N 01°17' E 103°46'0 0.0
2014-Jul-09 03:30N 01°17' E 103°46'0 0.0
2014-Jul-09 02:30N 01°17' E 103°46'0 0.0
2014-Jul-09 00:18N 01°17' E 103°46'0 0.0
2014-Jul-08 21:30N 01°17' E 103°46'0 0.0
2014-Jul-08 20:24N 01°17' E 103°46'0 0.0
2014-Jul-08 17:12N 01°17' E 103°46'0 0.0
2014-Jul-08 14:30N 01°17' E 103°46'0 0.0
2014-Jul-08 13:30N 01°17' E 103°46'0 0.0
2014-Jul-08 11:18N 01°17' E 103°46'0 0.0
2014-Jul-08 10:24N 01°17' E 103°46'0 0.0
2014-Jul-08 04:30N 01°17' E 103°46'0 0.0
2014-Jul-08 03:33N 01°17' E 103°46'1 0.6
2014-Jul-08 02:33N 01°17' E 103°45'7 6.7
2014-Jul-08 01:34N 01°12' E 103°50'9 8.8
2014-Jul-08 00:30N 01°15' E 103°59'  
Track history (hours):
 
Tides and Currents Weather Stations Pressure Air Temp Water Temp Dewpoint Dewpoint Depression Visibility Wind Speed Wind Dir Waves Ship Positions

CSCL Fuzhou

Last reported at 2014-Jul-17 21:33 UTC. Time now 2014-Jul-23 15:29 UTC.
Position N 01°12' E 103°53'.

Length 207.4 m; beam 29.8 m; draft 11.4 m.

Type: Ship (hazmat cat A). MMSI: 636016483.

Date/timePositionNaut miles runAvg speedWind from/ knotsBaromVisibWave heightAir tempDewpointWater temp
2014-Jul-17 21:33N 01°12' E 103°53'9 0.7
2014-Jul-17 08:26N 01°17' E 103°46'0 0.0
2014-Jul-17 07:26N 01°17' E 103°46'0 0.0
2014-Jul-17 06:32N 01°17' E 103°46'0 0.0
2014-Jul-17 05:32N 01°17' E 103°46'0 0.0
2014-Jul-17 04:26N 01°17' E 103°46'0 0.0
2014-Jul-17 03:32N 01°17' E 103°46'0 0.0
2014-Jul-17 02:32N 01°17' E 103°46'0 0.0
2014-Jul-17 01:32N 01°17' E 103°46'0 0.0
2014-Jul-17 00:14N 01°17' E 103°46'0 0.0
2014-Jul-16 22:14N 01°17' E 103°46'0 0.0
2014-Jul-16 21:26N 01°17' E 103°46'0 0.0
2014-Jul-16 20:32N 01°17' E 103°46'0 0.0
2014-Jul-16 19:32N 01°17' E 103°46'0 0.0
2014-Jul-16 18:32N 01°17' E 103°46'0 0.0
2014-Jul-16 17:14N 01°17' E 103°46'0 0.0
2014-Jul-16 16:08N 01°17' E 103°46'0 0.0
2014-Jul-16 15:20N 01°17' E 103°46'0 0.0
2014-Jul-16 14:32N 01°17' E 103°46'0 0.0
2014-Jul-16 13:32N 01°17' E 103°46'0 0.0
2014-Jul-16 10:26N 01°17' E 103°46'0 0.0
2014-Jul-16 07:32N 01°17' E 103°46'1 1.2
2014-Jul-16 06:33N 01°17' E 103°44'2 2.3
2014-Jul-16 05:33N 01°16' E 103°46'5 5.4
2014-Jul-16 04:33N 01°12' E 103°50'7 6.7
2014-Jul-16 03:33N 01°15' E 103°57'  
2014-Jul-09 13:10N 01°13' E 103°58'911.0
2014-Jul-09 12:19N 01°12' E 103°48'5 7.3
2014-Jul-09 11:33N 01°17' E 103°46'0 0.2
2014-Jul-09 10:27N 01°17' E 103°46'0 0.0
2014-Jul-09 09:21N 01°17' E 103°46'0 0.0
2014-Jul-09 08:12N 01°17' E 103°46'0 0.0
2014-Jul-09 07:18N 01°17' E 103°46'0 0.0
2014-Jul-09 06:33N 01°17' E 103°46'0 0.0
2014-Jul-09 05:30N 01°17' E 103°46'0 0.0
2014-Jul-09 04:24N 01°17' E 103°46'0 0.0
2014-Jul-09 03:30N 01°17' E 103°46'0 0.0
2014-Jul-09 02:30N 01°17' E 103°46'0 0.0
2014-Jul-09 00:18N 01°17' E 103°46'0 0.0
2014-Jul-08 21:30N 01°17' E 103°46'0 0.0
2014-Jul-08 20:24N 01°17' E 103°46'0 0.0
2014-Jul-08 17:12N 01°17' E 103°46'0 0.0
2014-Jul-08 14:30N 01°17' E 103°46'0 0.0
2014-Jul-08 13:30N 01°17' E 103°46'0 0.0
2014-Jul-08 11:18N 01°17' E 103°46'0 0.0
2014-Jul-08 10:24N 01°17' E 103°46'0 0.0
2014-Jul-08 04:30N 01°17' E 103°46'0 0.0
2014-Jul-08 03:33N 01°17' E 103°46'1 0.6
2014-Jul-08 02:33N 01°17' E 103°45'7 6.7
2014-Jul-08 01:34N 01°12' E 103°50'9 8.8
2014-Jul-08 00:30N 01°15' E 103°59'  

Dump ship's entire track history